sensor_id;sensor_type;location;lat;lon;timestamp;P1;durP1;ratioP1;P2;durP2;ratioP2
69837;SDS011;57135;51.992;4.476;2023-07-30T00:02:19;11.61;;;8.06;;
69837;SDS011;57135;51.992;4.476;2023-07-30T00:04:44;11.21;;;7.80;;
69837;SDS011;57135;51.992;4.476;2023-07-30T00:07:11;11.50;;;8.00;;
69837;SDS011;57135;51.992;4.476;2023-07-30T00:09:37;11.96;;;8.19;;
69837;SDS011;57135;51.992;4.476;2023-07-30T00:12:04;12.46;;;8.42;;
69837;SDS011;57135;51.992;4.476;2023-07-30T00:14:30;12.84;;;8.69;;
69837;SDS011;57135;51.992;4.476;2023-07-30T00:16:55;12.72;;;8.55;;
69837;SDS011;57135;51.992;4.476;2023-07-30T00:19:21;12.88;;;8.56;;
69837;SDS011;57135;51.992;4.476;2023-07-30T00:21:47;13.68;;;8.96;;
69837;SDS011;57135;51.992;4.476;2023-07-30T00:24:13;13.74;;;8.96;;
69837;SDS011;57135;51.992;4.476;2023-07-30T00:26:38;13.26;;;8.84;;
69837;SDS011;57135;51.992;4.476;2023-07-30T00:29:04;11.54;;;7.92;;
69837;SDS011;57135;51.992;4.476;2023-07-30T00:31:29;13.12;;;8.80;;
69837;SDS011;57135;51.992;4.476;2023-07-30T00:33:55;13.82;;;9.08;;
69837;SDS011;57135;51.992;4.476;2023-07-30T00:36:20;12.58;;;8.39;;
69837;SDS011;57135;51.992;4.476;2023-07-30T00:38:46;13.04;;;8.68;;
69837;SDS011;57135;51.992;4.476;2023-07-30T00:41:11;14.46;;;9.49;;
69837;SDS011;57135;51.992;4.476;2023-07-30T00:43:37;12.71;;;8.35;;
69837;SDS011;57135;51.992;4.476;2023-07-30T00:46:03;13.36;;;8.71;;
69837;SDS011;57135;51.992;4.476;2023-07-30T00:48:28;13.11;;;8.73;;
69837;SDS011;57135;51.992;4.476;2023-07-30T00:50:55;12.82;;;8.53;;
69837;SDS011;57135;51.992;4.476;2023-07-30T00:53:21;14.58;;;9.44;;
69837;SDS011;57135;51.992;4.476;2023-07-30T00:59:01;14.25;;;9.32;;
69837;SDS011;57135;51.992;4.476;2023-07-30T01:01:35;14.81;;;9.69;;
69837;SDS011;57135;51.992;4.476;2023-07-30T01:04:06;13.50;;;8.84;;
69837;SDS011;57135;51.992;4.476;2023-07-30T01:06:32;14.80;;;9.59;;
69837;SDS011;57135;51.992;4.476;2023-07-30T01:08:58;14.42;;;9.31;;
69837;SDS011;57135;51.992;4.476;2023-07-30T01:15:14;15.15;;;9.47;;
69837;SDS011;57135;51.992;4.476;2023-07-30T01:18:26;15.79;;;9.89;;
69837;SDS011;57135;51.992;4.476;2023-07-30T01:31:04;15.03;;;9.57;;
69837;SDS011;57135;51.992;4.476;2023-07-30T01:47:16;14.76;;;9.31;;
69837;SDS011;57135;51.992;4.476;2023-07-30T01:49:41;16.15;;;10.07;;
69837;SDS011;57135;51.992;4.476;2023-07-30T01:52:07;15.31;;;9.61;;
69837;SDS011;57135;51.992;4.476;2023-07-30T01:54:32;14.90;;;9.45;;
69837;SDS011;57135;51.992;4.476;2023-07-30T01:56:59;14.29;;;9.05;;
69837;SDS011;57135;51.992;4.476;2023-07-30T01:59:45;14.03;;;8.95;;
69837;SDS011;57135;51.992;4.476;2023-07-30T02:02:10;15.84;;;10.14;;
69837;SDS011;57135;51.992;4.476;2023-07-30T02:04:36;14.94;;;9.47;;
69837;SDS011;57135;51.992;4.476;2023-07-30T02:14:28;15.00;;;9.50;;
69837;SDS011;57135;51.992;4.476;2023-07-30T02:36:39;17.87;;;11.11;;
69837;SDS011;57135;51.992;4.476;2023-07-30T02:39:30;17.78;;;11.09;;
69837;SDS011;57135;51.992;4.476;2023-07-30T02:42:17;16.81;;;10.57;;
69837;SDS011;57135;51.992;4.476;2023-07-30T02:44:41;17.12;;;10.65;;
69837;SDS011;57135;51.992;4.476;2023-07-30T02:47:06;17.01;;;10.60;;
69837;SDS011;57135;51.992;4.476;2023-07-30T02:53:14;15.88;;;9.97;;
69837;SDS011;57135;51.992;4.476;2023-07-30T02:55:57;17.77;;;11.11;;
69837;SDS011;57135;51.992;4.476;2023-07-30T02:58:33;16.79;;;10.46;;
69837;SDS011;57135;51.992;4.476;2023-07-30T03:01:06;15.43;;;9.67;;
69837;SDS011;57135;51.992;4.476;2023-07-30T03:03:35;16.95;;;10.63;;
69837;SDS011;57135;51.992;4.476;2023-07-30T03:06:19;15.75;;;9.88;;
69837;SDS011;57135;51.992;4.476;2023-07-30T03:08:56;15.66;;;9.91;;
69837;SDS011;57135;51.992;4.476;2023-07-30T03:11:21;15.63;;;9.85;;
69837;SDS011;57135;51.992;4.476;2023-07-30T03:26:37;13.86;;;8.85;;
69837;SDS011;57135;51.992;4.476;2023-07-30T03:29:02;12.30;;;8.03;;
69837;SDS011;57135;51.992;4.476;2023-07-30T03:31:28;12.82;;;8.35;;
69837;SDS011;57135;51.992;4.476;2023-07-30T03:33:53;12.35;;;8.09;;
69837;SDS011;57135;51.992;4.476;2023-07-30T03:36:28;12.08;;;7.92;;
69837;SDS011;57135;51.992;4.476;2023-07-30T03:38:54;11.76;;;7.69;;
69837;SDS011;57135;51.992;4.476;2023-07-30T03:41:20;11.11;;;7.38;;
69837;SDS011;57135;51.992;4.476;2023-07-30T03:43:45;10.77;;;7.22;;
69837;SDS011;57135;51.992;4.476;2023-07-30T03:46:10;10.65;;;7.27;;
69837;SDS011;57135;51.992;4.476;2023-07-30T03:48:36;9.99;;;6.73;;
69837;SDS011;57135;51.992;4.476;2023-07-30T03:51:03;10.52;;;6.99;;
69837;SDS011;57135;51.992;4.476;2023-07-30T03:53:29;9.71;;;6.54;;
69837;SDS011;57135;51.992;4.476;2023-07-30T03:55:54;8.98;;;6.14;;
69837;SDS011;57135;51.992;4.476;2023-07-30T04:39:00;4.86;;;3.50;;
69837;SDS011;57135;51.992;4.476;2023-07-30T04:41:26;4.16;;;3.12;;
69837;SDS011;57135;51.992;4.476;2023-07-30T04:43:51;4.69;;;3.45;;
69837;SDS011;57135;51.992;4.476;2023-07-30T04:46:17;4.73;;;3.47;;
69837;SDS011;57135;51.992;4.476;2023-07-30T04:51:51;4.97;;;3.65;;
69837;SDS011;57135;51.992;4.476;2023-07-30T04:54:17;4.81;;;3.55;;
69837;SDS011;57135;51.992;4.476;2023-07-30T04:56:42;5.12;;;3.66;;
69837;SDS011;57135;51.992;4.476;2023-07-30T04:59:08;5.57;;;3.91;;
69837;SDS011;57135;51.992;4.476;2023-07-30T05:01:33;5.13;;;3.57;;
69837;SDS011;57135;51.992;4.476;2023-07-30T05:03:59;5.08;;;3.63;;
69837;SDS011;57135;51.992;4.476;2023-07-30T05:06:24;4.83;;;3.53;;
69837;SDS011;57135;51.992;4.476;2023-07-30T05:15:45;9.87;;;6.85;;
69837;SDS011;57135;51.992;4.476;2023-07-30T05:18:11;9.67;;;6.71;;
69837;SDS011;57135;51.992;4.476;2023-07-30T05:20:38;10.97;;;7.55;;
69837;SDS011;57135;51.992;4.476;2023-07-30T05:23:03;10.09;;;7.06;;
69837;SDS011;57135;51.992;4.476;2023-07-30T05:25:29;9.97;;;6.99;;
69837;SDS011;57135;51.992;4.476;2023-07-30T05:27:54;9.63;;;6.68;;
69837;SDS011;57135;51.992;4.476;2023-07-30T05:30:20;10.05;;;6.99;;
69837;SDS011;57135;51.992;4.476;2023-07-30T05:32:45;9.58;;;6.69;;
69837;SDS011;57135;51.992;4.476;2023-07-30T05:35:11;9.45;;;6.71;;
69837;SDS011;57135;51.992;4.476;2023-07-30T05:37:57;9.76;;;7.01;;
69837;SDS011;57135;51.992;4.476;2023-07-30T05:40:33;9.21;;;6.63;;
69837;SDS011;57135;51.992;4.476;2023-07-30T05:43:00;9.07;;;6.33;;
69837;SDS011;57135;51.992;4.476;2023-07-30T05:45:26;10.15;;;7.02;;
69837;SDS011;57135;51.992;4.476;2023-07-30T05:47:51;9.45;;;6.51;;
69837;SDS011;57135;51.992;4.476;2023-07-30T05:50:16;10.11;;;7.03;;
69837;SDS011;57135;51.992;4.476;2023-07-30T05:52:51;10.05;;;6.95;;
69837;SDS011;57135;51.992;4.476;2023-07-30T05:55:16;10.33;;;7.04;;
69837;SDS011;57135;51.992;4.476;2023-07-30T05:57:42;10.53;;;7.22;;
69837;SDS011;57135;51.992;4.476;2023-07-30T06:00:26;10.11;;;7.02;;
69837;SDS011;57135;51.992;4.476;2023-07-30T06:03:04;9.41;;;6.58;;
69837;SDS011;57135;51.992;4.476;2023-07-30T06:05:31;9.19;;;6.47;;
69837;SDS011;57135;51.992;4.476;2023-07-30T06:08:06;9.36;;;6.41;;
69837;SDS011;57135;51.992;4.476;2023-07-30T06:10:33;9.16;;;6.39;;
69837;SDS011;57135;51.992;4.476;2023-07-30T06:13:00;8.24;;;5.81;;
69837;SDS011;57135;51.992;4.476;2023-07-30T06:15:26;9.90;;;6.80;;
69837;SDS011;57135;51.992;4.476;2023-07-30T06:17:52;9.48;;;6.52;;
69837;SDS011;57135;51.992;4.476;2023-07-30T06:20:17;10.00;;;6.83;;
69837;SDS011;57135;51.992;4.476;2023-07-30T06:22:43;9.46;;;6.49;;
69837;SDS011;57135;51.992;4.476;2023-07-30T06:25:08;8.82;;;6.27;;
69837;SDS011;57135;51.992;4.476;2023-07-30T06:27:34;9.99;;;6.81;;
69837;SDS011;57135;51.992;4.476;2023-07-30T06:29:59;9.77;;;6.58;;
69837;SDS011;57135;51.992;4.476;2023-07-30T06:32:34;11.49;;;7.66;;
69837;SDS011;57135;51.992;4.476;2023-07-30T06:35:00;10.63;;;7.16;;
69837;SDS011;57135;51.992;4.476;2023-07-30T06:37:25;9.61;;;6.61;;
69837;SDS011;57135;51.992;4.476;2023-07-30T06:39:51;9.39;;;6.52;;
69837;SDS011;57135;51.992;4.476;2023-07-30T06:42:16;9.60;;;6.69;;
69837;SDS011;57135;51.992;4.476;2023-07-30T06:44:42;10.34;;;7.16;;
69837;SDS011;57135;51.992;4.476;2023-07-30T06:47:07;9.90;;;6.84;;
69837;SDS011;57135;51.992;4.476;2023-07-30T06:49:33;9.18;;;6.43;;
69837;SDS011;57135;51.992;4.476;2023-07-30T06:51:59;8.86;;;6.18;;
69837;SDS011;57135;51.992;4.476;2023-07-30T06:54:25;9.91;;;6.86;;
69837;SDS011;57135;51.992;4.476;2023-07-30T06:56:50;10.48;;;7.35;;
69837;SDS011;57135;51.992;4.476;2023-07-30T06:59:25;10.17;;;7.40;;
69837;SDS011;57135;51.992;4.476;2023-07-30T07:01:50;10.13;;;7.36;;
69837;SDS011;57135;51.992;4.476;2023-07-30T07:04:15;11.03;;;7.93;;
69837;SDS011;57135;51.992;4.476;2023-07-30T07:06:41;10.24;;;7.51;;
69837;SDS011;57135;51.992;4.476;2023-07-30T07:09:06;9.11;;;6.98;;
69837;SDS011;57135;51.992;4.476;2023-07-30T07:11:32;9.96;;;7.55;;
69837;SDS011;57135;51.992;4.476;2023-07-30T07:13:57;9.00;;;6.93;;
69837;SDS011;57135;51.992;4.476;2023-07-30T07:16:23;9.20;;;7.08;;
69837;SDS011;57135;51.992;4.476;2023-07-30T07:18:48;8.71;;;6.71;;
69837;SDS011;57135;51.992;4.476;2023-07-30T07:21:14;9.01;;;6.65;;
69837;SDS011;57135;51.992;4.476;2023-07-30T07:23:39;8.43;;;6.28;;
69837;SDS011;57135;51.992;4.476;2023-07-30T07:26:05;8.55;;;6.32;;
69837;SDS011;57135;51.992;4.476;2023-07-30T07:28:31;8.81;;;6.55;;
69837;SDS011;57135;51.992;4.476;2023-07-30T07:30:56;8.95;;;6.44;;
69837;SDS011;57135;51.992;4.476;2023-07-30T07:33:23;8.50;;;6.08;;
69837;SDS011;57135;51.992;4.476;2023-07-30T07:35:48;7.53;;;5.57;;
69837;SDS011;57135;51.992;4.476;2023-07-30T07:38:14;7.73;;;5.58;;
69837;SDS011;57135;51.992;4.476;2023-07-30T07:40:40;6.99;;;5.22;;
69837;SDS011;57135;51.992;4.476;2023-07-30T07:43:06;5.72;;;4.15;;
69837;SDS011;57135;51.992;4.476;2023-07-30T07:45:32;5.89;;;4.13;;
69837;SDS011;57135;51.992;4.476;2023-07-30T07:47:57;6.03;;;4.20;;
69837;SDS011;57135;51.992;4.476;2023-07-30T07:50:23;6.08;;;4.15;;
69837;SDS011;57135;51.992;4.476;2023-07-30T07:52:48;5.86;;;4.02;;
69837;SDS011;57135;51.992;4.476;2023-07-30T07:55:14;5.62;;;3.91;;
69837;SDS011;57135;51.992;4.476;2023-07-30T07:57:39;5.78;;;3.97;;
69837;SDS011;57135;51.992;4.476;2023-07-30T08:00:05;6.28;;;4.36;;
69837;SDS011;57135;51.992;4.476;2023-07-30T08:02:31;5.71;;;3.95;;
69837;SDS011;57135;51.992;4.476;2023-07-30T08:04:57;6.54;;;4.48;;
69837;SDS011;57135;51.992;4.476;2023-07-30T08:07:22;6.12;;;4.20;;
69837;SDS011;57135;51.992;4.476;2023-07-30T08:09:48;6.20;;;4.27;;
69837;SDS011;57135;51.992;4.476;2023-07-30T08:12:13;6.07;;;4.11;;
69837;SDS011;57135;51.992;4.476;2023-07-30T08:14:39;6.61;;;4.46;;
69837;SDS011;57135;51.992;4.476;2023-07-30T08:17:04;5.91;;;4.03;;
69837;SDS011;57135;51.992;4.476;2023-07-30T08:19:30;5.66;;;3.97;;
69837;SDS011;57135;51.992;4.476;2023-07-30T08:21:55;5.74;;;4.08;;
69837;SDS011;57135;51.992;4.476;2023-07-30T08:24:22;6.03;;;4.13;;
69837;SDS011;57135;51.992;4.476;2023-07-30T08:26:47;6.50;;;4.49;;
69837;SDS011;57135;51.992;4.476;2023-07-30T08:29:13;5.83;;;4.05;;
69837;SDS011;57135;51.992;4.476;2023-07-30T08:31:39;6.08;;;4.23;;
69837;SDS011;57135;51.992;4.476;2023-07-30T08:34:05;7.23;;;4.98;;
69837;SDS011;57135;51.992;4.476;2023-07-30T08:36:30;6.62;;;4.58;;
69837;SDS011;57135;51.992;4.476;2023-07-30T08:38:57;6.07;;;4.21;;
69837;SDS011;57135;51.992;4.476;2023-07-30T08:41:22;5.59;;;3.99;;
69837;SDS011;57135;51.992;4.476;2023-07-30T08:43:48;6.00;;;4.26;;
69837;SDS011;57135;51.992;4.476;2023-07-30T08:46:14;6.33;;;4.36;;
69837;SDS011;57135;51.992;4.476;2023-07-30T08:48:42;5.79;;;4.00;;
69837;SDS011;57135;51.992;4.476;2023-07-30T08:51:08;7.70;;;5.14;;
69837;SDS011;57135;51.992;4.476;2023-07-30T08:53:36;6.76;;;4.51;;
69837;SDS011;57135;51.992;4.476;2023-07-30T08:56:02;6.53;;;4.51;;
69837;SDS011;57135;51.992;4.476;2023-07-30T08:58:27;6.67;;;4.61;;
69837;SDS011;57135;51.992;4.476;2023-07-30T09:00:55;6.64;;;4.63;;
69837;SDS011;57135;51.992;4.476;2023-07-30T09:03:27;5.95;;;4.26;;
69837;SDS011;57135;51.992;4.476;2023-07-30T09:05:55;6.33;;;4.49;;
69837;SDS011;57135;51.992;4.476;2023-07-30T09:08:21;5.53;;;3.85;;
69837;SDS011;57135;51.992;4.476;2023-07-30T09:10:48;6.01;;;4.14;;
69837;SDS011;57135;51.992;4.476;2023-07-30T09:13:20;5.32;;;3.74;;
69837;SDS011;57135;51.992;4.476;2023-07-30T09:15:48;5.79;;;4.13;;
69837;SDS011;57135;51.992;4.476;2023-07-30T09:18:16;5.24;;;3.75;;
69837;SDS011;57135;51.992;4.476;2023-07-30T09:20:42;5.54;;;3.91;;
69837;SDS011;57135;51.992;4.476;2023-07-30T09:23:08;5.90;;;4.14;;
69837;SDS011;57135;51.992;4.476;2023-07-30T09:25:35;5.22;;;3.66;;
69837;SDS011;57135;51.992;4.476;2023-07-30T09:28:01;4.90;;;3.44;;
69837;SDS011;57135;51.992;4.476;2023-07-30T09:30:27;4.80;;;3.35;;
69837;SDS011;57135;51.992;4.476;2023-07-30T09:32:53;4.71;;;3.33;;
69837;SDS011;57135;51.992;4.476;2023-07-30T09:35:36;4.68;;;3.37;;
69837;SDS011;57135;51.992;4.476;2023-07-30T09:38:02;4.68;;;3.35;;
69837;SDS011;57135;51.992;4.476;2023-07-30T09:40:35;4.75;;;3.48;;
69837;SDS011;57135;51.992;4.476;2023-07-30T09:43:05;5.09;;;3.64;;
69837;SDS011;57135;51.992;4.476;2023-07-30T09:45:35;5.54;;;3.93;;
69837;SDS011;57135;51.992;4.476;2023-07-30T09:48:02;5.68;;;3.92;;
69837;SDS011;57135;51.992;4.476;2023-07-30T09:50:30;6.07;;;4.13;;
69837;SDS011;57135;51.992;4.476;2023-07-30T09:53:03;5.90;;;3.97;;
69837;SDS011;57135;51.992;4.476;2023-07-30T09:55:32;5.46;;;3.69;;
69837;SDS011;57135;51.992;4.476;2023-07-30T09:57:57;5.04;;;3.42;;
69837;SDS011;57135;51.992;4.476;2023-07-30T10:00:23;5.21;;;3.54;;
69837;SDS011;57135;51.992;4.476;2023-07-30T10:02:49;5.00;;;3.45;;
69837;SDS011;57135;51.992;4.476;2023-07-30T10:05:16;4.60;;;3.23;;
69837;SDS011;57135;51.992;4.476;2023-07-30T10:07:58;4.76;;;3.35;;
69837;SDS011;57135;51.992;4.476;2023-07-30T10:10:28;4.73;;;3.35;;
69837;SDS011;57135;51.992;4.476;2023-07-30T10:12:55;5.44;;;3.79;;
69837;SDS011;57135;51.992;4.476;2023-07-30T10:16:01;5.32;;;3.69;;
69837;SDS011;57135;51.992;4.476;2023-07-30T10:18:41;4.96;;;3.46;;
69837;SDS011;57135;51.992;4.476;2023-07-30T10:21:08;5.60;;;3.86;;
69837;SDS011;57135;51.992;4.476;2023-07-30T10:23:35;5.69;;;3.92;;
69837;SDS011;57135;51.992;4.476;2023-07-30T10:26:10;5.90;;;4.05;;
69837;SDS011;57135;51.992;4.476;2023-07-30T10:28:36;5.14;;;3.55;;
69837;SDS011;57135;51.992;4.476;2023-07-30T10:31:07;4.77;;;3.31;;
69837;SDS011;57135;51.992;4.476;2023-07-30T10:33:43;5.51;;;3.81;;
69837;SDS011;57135;51.992;4.476;2023-07-30T10:36:16;5.26;;;3.62;;
69837;SDS011;57135;51.992;4.476;2023-07-30T10:38:43;5.18;;;3.58;;
69837;SDS011;57135;51.992;4.476;2023-07-30T10:41:10;5.77;;;4.01;;
69837;SDS011;57135;51.992;4.476;2023-07-30T10:43:41;4.79;;;3.33;;
69837;SDS011;57135;51.992;4.476;2023-07-30T10:46:09;4.83;;;3.38;;
69837;SDS011;57135;51.992;4.476;2023-07-30T10:48:36;4.44;;;3.08;;
69837;SDS011;57135;51.992;4.476;2023-07-30T10:51:04;4.48;;;3.14;;
69837;SDS011;57135;51.992;4.476;2023-07-30T10:53:31;4.23;;;2.95;;
69837;SDS011;57135;51.992;4.476;2023-07-30T10:55:58;4.79;;;3.31;;
69837;SDS011;57135;51.992;4.476;2023-07-30T10:58:26;5.03;;;3.49;;
69837;SDS011;57135;51.992;4.476;2023-07-30T11:00:53;4.48;;;3.16;;
69837;SDS011;57135;51.992;4.476;2023-07-30T11:03:26;4.52;;;3.20;;
69837;SDS011;57135;51.992;4.476;2023-07-30T11:05:52;5.00;;;3.50;;
69837;SDS011;57135;51.992;4.476;2023-07-30T11:08:18;4.46;;;3.09;;
69837;SDS011;57135;51.992;4.476;2023-07-30T11:10:47;4.29;;;2.94;;
69837;SDS011;57135;51.992;4.476;2023-07-30T11:13:15;5.22;;;3.55;;
69837;SDS011;57135;51.992;4.476;2023-07-30T11:15:42;5.37;;;3.73;;
69837;SDS011;57135;51.992;4.476;2023-07-30T11:18:11;4.53;;;3.26;;
69837;SDS011;57135;51.992;4.476;2023-07-30T11:20:37;4.52;;;3.31;;
69837;SDS011;57135;51.992;4.476;2023-07-30T11:23:16;4.40;;;3.22;;
69837;SDS011;57135;51.992;4.476;2023-07-30T11:25:45;4.53;;;3.26;;
69837;SDS011;57135;51.992;4.476;2023-07-30T11:28:14;4.83;;;3.43;;
69837;SDS011;57135;51.992;4.476;2023-07-30T11:30:40;4.77;;;3.35;;
69837;SDS011;57135;51.992;4.476;2023-07-30T11:33:06;4.57;;;3.19;;
69837;SDS011;57135;51.992;4.476;2023-07-30T11:35:32;3.89;;;2.77;;
69837;SDS011;57135;51.992;4.476;2023-07-30T11:37:58;4.40;;;3.17;;
69837;SDS011;57135;51.992;4.476;2023-07-30T11:40:23;4.37;;;3.10;;
69837;SDS011;57135;51.992;4.476;2023-07-30T11:42:49;4.44;;;3.19;;
69837;SDS011;57135;51.992;4.476;2023-07-30T11:45:19;3.96;;;2.80;;
69837;SDS011;57135;51.992;4.476;2023-07-30T11:48:19;5.02;;;3.42;;
69837;SDS011;57135;51.992;4.476;2023-07-30T11:50:50;5.41;;;3.65;;
69837;SDS011;57135;51.992;4.476;2023-07-30T11:53:17;4.65;;;3.23;;
69837;SDS011;57135;51.992;4.476;2023-07-30T11:55:43;4.80;;;3.35;;
69837;SDS011;57135;51.992;4.476;2023-07-30T11:58:11;4.56;;;3.17;;
69837;SDS011;57135;51.992;4.476;2023-07-30T12:00:40;4.85;;;3.37;;
69837;SDS011;57135;51.992;4.476;2023-07-30T12:03:08;5.20;;;3.55;;
69837;SDS011;57135;51.992;4.476;2023-07-30T12:05:36;6.30;;;4.29;;
69837;SDS011;57135;51.992;4.476;2023-07-30T12:08:03;4.81;;;3.21;;
69837;SDS011;57135;51.992;4.476;2023-07-30T12:10:45;4.93;;;3.29;;
69837;SDS011;57135;51.992;4.476;2023-07-30T12:13:17;4.48;;;2.93;;
69837;SDS011;57135;51.992;4.476;2023-07-30T12:15:51;3.82;;;2.57;;
69837;SDS011;57135;51.992;4.476;2023-07-30T12:18:17;4.43;;;2.93;;
69837;SDS011;57135;51.992;4.476;2023-07-30T12:20:44;4.75;;;3.11;;
69837;SDS011;57135;51.992;4.476;2023-07-30T12:23:09;4.68;;;3.08;;
69837;SDS011;57135;51.992;4.476;2023-07-30T12:25:37;4.09;;;2.72;;
69837;SDS011;57135;51.992;4.476;2023-07-30T12:28:03;4.08;;;2.73;;
69837;SDS011;57135;51.992;4.476;2023-07-30T12:30:32;4.69;;;3.08;;
69837;SDS011;57135;51.992;4.476;2023-07-30T12:32:58;4.12;;;2.70;;
69837;SDS011;57135;51.992;4.476;2023-07-30T12:35:23;4.62;;;3.05;;
69837;SDS011;57135;51.992;4.476;2023-07-30T12:37:49;4.56;;;3.05;;
69837;SDS011;57135;51.992;4.476;2023-07-30T12:40:15;4.59;;;3.08;;
69837;SDS011;57135;51.992;4.476;2023-07-30T12:42:41;4.70;;;3.14;;
69837;SDS011;57135;51.992;4.476;2023-07-30T12:45:07;4.23;;;2.85;;
69837;SDS011;57135;51.992;4.476;2023-07-30T12:47:33;5.18;;;3.48;;
69837;SDS011;57135;51.992;4.476;2023-07-30T12:50:00;5.35;;;3.58;;
69837;SDS011;57135;51.992;4.476;2023-07-30T12:52:27;6.01;;;3.92;;
69837;SDS011;57135;51.992;4.476;2023-07-30T12:54:52;6.45;;;4.09;;
69837;SDS011;57135;51.992;4.476;2023-07-30T12:57:18;5.68;;;3.58;;
69837;SDS011;57135;51.992;4.476;2023-07-30T12:59:43;6.18;;;3.93;;
69837;SDS011;57135;51.992;4.476;2023-07-30T13:02:09;7.57;;;4.79;;
69837;SDS011;57135;51.992;4.476;2023-07-30T13:04:34;7.84;;;4.89;;
69837;SDS011;57135;51.992;4.476;2023-07-30T13:07:00;7.18;;;4.56;;
69837;SDS011;57135;51.992;4.476;2023-07-30T13:09:25;6.06;;;3.99;;
69837;SDS011;57135;51.992;4.476;2023-07-30T13:11:53;8.20;;;5.31;;
69837;SDS011;57135;51.992;4.476;2023-07-30T13:14:18;8.29;;;5.12;;
69837;SDS011;57135;51.992;4.476;2023-07-30T13:16:44;6.91;;;4.35;;
69837;SDS011;57135;51.992;4.476;2023-07-30T13:19:09;6.93;;;4.40;;
69837;SDS011;57135;51.992;4.476;2023-07-30T13:21:35;6.59;;;4.28;;
69837;SDS011;57135;51.992;4.476;2023-07-30T13:24:00;5.90;;;3.91;;
69837;SDS011;57135;51.992;4.476;2023-07-30T13:26:25;6.18;;;4.11;;
69837;SDS011;57135;51.992;4.476;2023-07-30T13:28:51;6.45;;;4.27;;
69837;SDS011;57135;51.992;4.476;2023-07-30T13:31:16;6.32;;;4.21;;
69837;SDS011;57135;51.992;4.476;2023-07-30T13:33:44;7.17;;;4.78;;
69837;SDS011;57135;51.992;4.476;2023-07-30T13:36:12;7.14;;;4.71;;
69837;SDS011;57135;51.992;4.476;2023-07-30T13:38:38;8.00;;;5.22;;
69837;SDS011;57135;51.992;4.476;2023-07-30T13:41:04;7.59;;;4.94;;
69837;SDS011;57135;51.992;4.476;2023-07-30T13:43:30;7.87;;;5.12;;
69837;SDS011;57135;51.992;4.476;2023-07-30T13:45:56;7.42;;;4.94;;
69837;SDS011;57135;51.992;4.476;2023-07-30T13:48:23;7.54;;;4.94;;
69837;SDS011;57135;51.992;4.476;2023-07-30T13:50:49;9.21;;;6.00;;
69837;SDS011;57135;51.992;4.476;2023-07-30T13:53:15;9.17;;;6.04;;
69837;SDS011;57135;51.992;4.476;2023-07-30T13:55:40;9.48;;;6.25;;
69837;SDS011;57135;51.992;4.476;2023-07-30T13:58:06;9.95;;;6.51;;
69837;SDS011;57135;51.992;4.476;2023-07-30T14:00:31;10.90;;;6.95;;
69837;SDS011;57135;51.992;4.476;2023-07-30T14:02:57;10.10;;;6.52;;
69837;SDS011;57135;51.992;4.476;2023-07-30T14:05:22;10.19;;;6.63;;
69837;SDS011;57135;51.992;4.476;2023-07-30T14:07:48;8.48;;;5.65;;
69837;SDS011;57135;51.992;4.476;2023-07-30T14:10:15;9.71;;;6.40;;
69837;SDS011;57135;51.992;4.476;2023-07-30T14:12:40;8.99;;;5.98;;
69837;SDS011;57135;51.992;4.476;2023-07-30T14:15:06;9.69;;;6.58;;
69837;SDS011;57135;51.992;4.476;2023-07-30T14:17:32;8.27;;;5.74;;
69837;SDS011;57135;51.992;4.476;2023-07-30T14:19:57;9.93;;;6.63;;
69837;SDS011;57135;51.992;4.476;2023-07-30T14:22:23;10.79;;;7.12;;
69837;SDS011;57135;51.992;4.476;2023-07-30T14:24:48;9.68;;;6.46;;
69837;SDS011;57135;51.992;4.476;2023-07-30T14:27:14;9.59;;;6.53;;
69837;SDS011;57135;51.992;4.476;2023-07-30T14:29:40;9.94;;;6.77;;
69837;SDS011;57135;51.992;4.476;2023-07-30T14:32:05;10.57;;;6.98;;
69837;SDS011;57135;51.992;4.476;2023-07-30T14:34:31;10.11;;;6.77;;
69837;SDS011;57135;51.992;4.476;2023-07-30T14:36:57;9.47;;;6.60;;
69837;SDS011;57135;51.992;4.476;2023-07-30T14:39:22;8.59;;;6.01;;
69837;SDS011;57135;51.992;4.476;2023-07-30T14:41:48;10.32;;;7.13;;
69837;SDS011;57135;51.992;4.476;2023-07-30T14:44:13;12.92;;;8.62;;
69837;SDS011;57135;51.992;4.476;2023-07-30T14:46:39;12.79;;;8.51;;
69837;SDS011;57135;51.992;4.476;2023-07-30T14:49:04;11.49;;;7.88;;
69837;SDS011;57135;51.992;4.476;2023-07-30T14:51:30;10.49;;;7.18;;
69837;SDS011;57135;51.992;4.476;2023-07-30T14:53:55;9.59;;;6.66;;
69837;SDS011;57135;51.992;4.476;2023-07-30T14:56:21;10.07;;;7.05;;
69837;SDS011;57135;51.992;4.476;2023-07-30T14:58:46;11.32;;;7.90;;
69837;SDS011;57135;51.992;4.476;2023-07-30T15:01:12;11.30;;;7.77;;
69837;SDS011;57135;51.992;4.476;2023-07-30T15:03:37;13.27;;;8.87;;
69837;SDS011;57135;51.992;4.476;2023-07-30T15:06:03;12.54;;;8.57;;
69837;SDS011;57135;51.992;4.476;2023-07-30T15:08:28;12.10;;;8.33;;
69837;SDS011;57135;51.992;4.476;2023-07-30T15:10:55;10.75;;;7.80;;
69837;SDS011;57135;51.992;4.476;2023-07-30T15:13:20;11.02;;;8.17;;
69837;SDS011;57135;51.992;4.476;2023-07-30T15:15:48;10.79;;;7.96;;
69837;SDS011;57135;51.992;4.476;2023-07-30T15:18:13;10.07;;;7.32;;
69837;SDS011;57135;51.992;4.476;2023-07-30T15:20:39;10.96;;;7.81;;
69837;SDS011;57135;51.992;4.476;2023-07-30T15:23:04;10.30;;;7.58;;
69837;SDS011;57135;51.992;4.476;2023-07-30T15:25:30;10.46;;;7.53;;
69837;SDS011;57135;51.992;4.476;2023-07-30T15:27:55;10.66;;;7.55;;
69837;SDS011;57135;51.992;4.476;2023-07-30T15:30:23;11.02;;;7.73;;
69837;SDS011;57135;51.992;4.476;2023-07-30T15:32:49;11.04;;;7.89;;
69837;SDS011;57135;51.992;4.476;2023-07-30T15:35:15;10.47;;;7.42;;
69837;SDS011;57135;51.992;4.476;2023-07-30T15:37:40;11.66;;;8.04;;
69837;SDS011;57135;51.992;4.476;2023-07-30T15:40:06;12.15;;;8.29;;
69837;SDS011;57135;51.992;4.476;2023-07-30T15:42:32;10.69;;;7.71;;
69837;SDS011;57135;51.992;4.476;2023-07-30T15:44:58;10.56;;;7.63;;
69837;SDS011;57135;51.992;4.476;2023-07-30T15:47:24;11.44;;;8.09;;
69837;SDS011;57135;51.992;4.476;2023-07-30T15:49:49;10.53;;;7.67;;
69837;SDS011;57135;51.992;4.476;2023-07-30T15:52:15;11.27;;;8.00;;
69837;SDS011;57135;51.992;4.476;2023-07-30T15:54:40;9.40;;;6.80;;
69837;SDS011;57135;51.992;4.476;2023-07-30T15:57:06;8.31;;;6.13;;
69837;SDS011;57135;51.992;4.476;2023-07-30T15:59:33;5.99;;;4.54;;
69837;SDS011;57135;51.992;4.476;2023-07-30T16:01:59;4.90;;;3.63;;
69837;SDS011;57135;51.992;4.476;2023-07-30T16:04:25;4.49;;;3.25;;
69837;SDS011;57135;51.992;4.476;2023-07-30T16:06:51;4.27;;;3.05;;
69837;SDS011;57135;51.992;4.476;2023-07-30T16:09:18;3.78;;;2.68;;
69837;SDS011;57135;51.992;4.476;2023-07-30T16:11:44;3.72;;;2.63;;
69837;SDS011;57135;51.992;4.476;2023-07-30T16:14:09;3.54;;;2.53;;
69837;SDS011;57135;51.992;4.476;2023-07-30T16:16:35;3.81;;;2.76;;
69837;SDS011;57135;51.992;4.476;2023-07-30T16:19:04;3.83;;;2.78;;
69837;SDS011;57135;51.992;4.476;2023-07-30T16:21:32;3.87;;;2.85;;
69837;SDS011;57135;51.992;4.476;2023-07-30T16:23:58;3.88;;;2.98;;
69837;SDS011;57135;51.992;4.476;2023-07-30T16:26:23;3.81;;;3.08;;
69837;SDS011;57135;51.992;4.476;2023-07-30T16:28:49;3.82;;;3.19;;
69837;SDS011;57135;51.992;4.476;2023-07-30T16:31:15;3.69;;;3.17;;
69837;SDS011;57135;51.992;4.476;2023-07-30T16:33:40;3.45;;;3.09;;
69837;SDS011;57135;51.992;4.476;2023-07-30T16:36:06;3.31;;;3.07;;
69837;SDS011;57135;51.992;4.476;2023-07-30T16:38:32;3.26;;;3.13;;
69837;SDS011;57135;51.992;4.476;2023-07-30T16:40:58;3.42;;;3.26;;
69837;SDS011;57135;51.992;4.476;2023-07-30T16:43:25;3.47;;;3.38;;
69837;SDS011;57135;51.992;4.476;2023-07-30T16:45:51;3.40;;;3.31;;
69837;SDS011;57135;51.992;4.476;2023-07-30T16:48:16;3.57;;;3.48;;
69837;SDS011;57135;51.992;4.476;2023-07-30T16:50:46;3.70;;;3.60;;